Time;durP1;ratioP1;P1;durP2;ratioP2;P2;SDS_P1;SDS_P2;PMS_P1;PMS_P2;Temp;Humidity;BMP_temperature;BMP_pressure;BME280_temperature;BME280_humidity;BME280_pressure;Samples;Min_cycle;Max_cycle;Signal;HPM_P1;HPM_P2
2021/08/21 00:00:53;;;;;;;6.60;5.15;;;23.00;76.60;;;;;;5042617;28;20037;-60
2021/08/21 00:03:19;;;;;;;7.82;5.55;;;23.00;76.70;;;;;;5046918;28;20467;-60
2021/08/21 00:05:44;;;;;;;7.72;5.20;;;22.90;76.70;;;;;;5044688;28;20051;-60
2021/08/21 00:08:10;;;;;;;5.80;5.15;;;23.00;76.80;;;;;;5032754;28;20025;-60
2021/08/21 00:10:35;;;;;;;6.68;5.47;;;22.90;76.90;;;;;;5066837;28;20025;-60
2021/08/21 00:13:01;;;;;;;7.15;5.18;;;22.90;76.90;;;;;;5029541;28;20033;-60
2021/08/21 00:15:26;;;;;;;8.55;5.85;;;22.90;77.00;;;;;;5070797;28;20525;-60
2021/08/21 00:17:52;;;;;;;10.85;5.93;;;22.90;77.10;;;;;;5047443;28;20509;-60
2021/08/21 00:20:18;;;;;;;6.85;6.15;;;22.80;77.10;;;;;;5048838;28;20045;-60
2021/08/21 00:22:43;;;;;;;7.85;6.50;;;22.80;77.20;;;;;;5027241;28;20048;-60
2021/08/21 00:25:11;;;;;;;8.43;6.80;;;22.80;77.20;;;;;;5029930;28;20028;-60
2021/08/21 00:27:37;;;;;;;10.20;6.47;;;22.80;77.40;;;;;;5045272;28;20021;-60
2021/08/21 00:30:03;;;;;;;8.00;6.13;;;22.80;77.40;;;;;;5060879;28;20361;-60
2021/08/21 00:32:29;;;;;;;8.95;6.47;;;22.70;77.40;;;;;;5039011;28;20036;-60
2021/08/21 00:34:54;;;;;;;7.78;5.93;;;22.70;77.50;;;;;;5032883;28;20021;-60
2021/08/21 00:37:19;;;;;;;8.10;6.28;;;22.70;77.50;;;;;;5057229;28;20429;-60
2021/08/21 00:39:45;;;;;;;9.70;6.45;;;22.70;77.60;;;;;;5031796;28;20049;-59
2021/08/21 00:42:10;;;;;;;8.98;6.50;;;22.70;77.70;;;;;;5039375;28;20028;-60
2021/08/21 00:44:38;;;;;;;7.70;6.07;;;22.60;77.80;;;;;;5023127;28;20061;-60
2021/08/21 00:47:14;;;;;;;10.52;6.38;;;22.60;77.90;;;;;;5065176;28;20020;-60
2021/08/21 00:49:41;;;;;;;7.10;6.10;;;22.60;77.90;;;;;;5048832;28;20027;-60
2021/08/21 00:52:09;;;;;;;11.15;5.85;;;22.60;78.00;;;;;;5047814;28;20028;-60
2021/08/21 00:54:35;;;;;;;9.23;6.07;;;22.60;78.10;;;;;;5041788;28;20334;-62
2021/08/21 00:57:00;;;;;;;7.03;6.25;;;22.50;78.10;;;;;;5060561;28;20043;-59
2021/08/21 00:59:29;;;;;;;10.32;6.32;;;22.50;78.10;;;;;;5029146;28;20044;-59
2021/08/21 01:01:55;;;;;;;8.43;6.60;;;22.50;78.20;;;;;;5051860;28;20023;-59
2021/08/21 01:04:20;;;;;;;9.60;7.35;;;22.50;78.30;;;;;;5043249;28;20105;-59
2021/08/21 01:06:46;;;;;;;9.45;6.53;;;22.50;78.40;;;;;;5043572;28;20367;-60
2021/08/21 01:09:11;;;;;;;10.18;6.88;;;22.40;78.40;;;;;;5042751;28;20043;-60
2021/08/21 01:11:37;;;;;;;10.38;6.90;;;22.50;78.50;;;;;;5041648;28;20051;-59
2021/08/21 01:14:02;;;;;;;8.88;6.85;;;22.40;78.50;;;;;;5045367;28;20447;-59
2021/08/21 01:16:28;;;;;;;8.18;7.13;;;22.40;78.50;;;;;;5035049;28;20443;-59
2021/08/21 01:18:53;;;;;;;7.13;6.43;;;22.40;78.60;;;;;;5031302;28;21538;-59
2021/08/21 01:21:20;;;;;;;7.07;6.38;;;22.40;78.70;;;;;;5042078;28;20372;-59
2021/08/21 01:23:45;;;;;;;8.77;6.88;;;22.40;78.70;;;;;;5044628;28;20033;-60
2021/08/21 01:26:11;;;;;;;7.57;6.75;;;22.30;78.70;;;;;;5062206;28;20078;-59
2021/08/21 01:28:37;;;;;;;8.85;6.63;;;22.30;78.80;;;;;;5016299;28;20047;-59
2021/08/21 01:31:04;;;;;;;13.13;6.78;;;22.30;78.80;;;;;;5027569;28;20527;-59
2021/08/21 01:33:31;;;;;;;15.00;6.60;;;22.30;78.90;;;;;;5044991;28;20020;-59
2021/08/21 01:35:57;;;;;;;16.65;6.75;;;22.30;79.10;;;;;;5030520;28;20482;-59
2021/08/21 01:38:22;;;;;;;18.55;7.03;;;22.30;79.00;;;;;;5025920;28;20062;-59
2021/08/21 01:40:51;;;;;;;11.90;6.75;;;22.20;79.10;;;;;;5039802;28;20055;-60
2021/08/21 01:43:17;;;;;;;13.48;6.63;;;22.20;79.10;;;;;;5046832;28;20040;-59
2021/08/21 01:45:43;;;;;;;14.68;6.00;;;22.20;79.20;;;;;;5039277;28;20044;-59
2021/08/21 01:48:08;;;;;;;14.98;6.65;;;22.20;79.30;;;;;;5028178;28;20021;-60
2021/08/21 01:50:34;;;;;;;18.80;6.63;;;22.20;79.30;;;;;;5042842;28;20376;-59
2021/08/21 01:52:59;;;;;;;15.55;6.75;;;22.10;79.30;;;;;;5043358;28;20048;-59
2021/08/21 01:55:29;;;;;;;9.98;5.60;;;22.10;79.40;;;;;;5014052;28;20036;-59
2021/08/21 01:57:54;;;;;;;10.65;6.25;;;22.10;79.50;;;;;;5029032;28;20077;-59
2021/08/21 02:00:27;;;;;;;19.52;6.70;;;22.10;79.50;;;;;;5038964;28;20033;-59
2021/08/21 02:02:56;;;;;;;11.98;6.18;;;22.10;79.60;;;;;;5043885;28;20036;-59
2021/08/21 02:05:22;;;;;;;11.63;6.20;;;22.00;79.60;;;;;;5047973;28;20346;-59
2021/08/21 02:07:48;;;;;;;13.13;7.60;;;22.00;79.70;;;;;;5025794;28;20047;-59
2021/08/21 02:10:14;;;;;;;13.63;7.85;;;22.00;79.70;;;;;;5031235;28;20035;-59
2021/08/21 02:12:39;;;;;;;12.10;8.18;;;22.00;79.70;;;;;;5048587;28;20025;-59
2021/08/21 02:15:07;;;;;;;12.45;7.70;;;22.00;79.90;;;;;;5028830;28;20044;-59
2021/08/21 02:17:32;;;;;;;14.77;8.13;;;22.00;80.00;;;;;;5014934;28;20500;-59
2021/08/21 02:19:58;;;;;;;18.75;7.20;;;21.90;79.90;;;;;;5067668;28;20087;-60
2021/08/21 02:22:24;;;;;;;12.32;7.10;;;21.90;80.00;;;;;;5064251;28;20087;-59
2021/08/21 02:24:52;;;;;;;9.93;6.18;;;21.90;80.00;;;;;;5046646;28;20178;-59
2021/08/21 02:27:21;;;;;;;13.52;6.70;;;21.90;80.00;;;;;;5026580;28;20542;-59
2021/08/21 02:29:48;;;;;;;13.25;6.35;;;21.90;80.20;;;;;;5068862;28;20506;-59
2021/08/21 02:32:13;;;;;;;11.10;7.07;;;21.90;80.10;;;;;;5042590;28;20136;-59
2021/08/21 02:34:39;;;;;;;10.18;6.32;;;21.80;80.20;;;;;;5045607;28;20103;-59
2021/08/21 02:37:05;;;;;;;9.27;6.53;;;21.80;80.30;;;;;;5059997;28;20550;-59
2021/08/21 02:39:31;;;;;;;10.25;6.63;;;21.80;80.40;;;;;;5011486;28;20029;-59
2021/08/21 02:41:56;;;;;;;7.70;5.82;;;21.80;80.40;;;;;;5065071;28;20051;-60
2021/08/21 02:44:21;;;;;;;7.55;6.07;;;21.80;80.30;;;;;;5056139;28;20047;-59
2021/08/21 02:46:47;;;;;;;12.25;5.88;;;21.80;80.50;;;;;;5024466;28;20054;-59
2021/08/21 02:49:13;;;;;;;8.10;5.47;;;21.80;80.50;;;;;;5062737;28;20440;-60
2021/08/21 02:51:38;;;;;;;16.38;5.88;;;21.70;80.50;;;;;;5044482;28;20518;-59
2021/08/21 02:54:04;;;;;;;7.95;5.45;;;21.70;80.70;;;;;;5028543;28;20115;-59
2021/08/21 02:56:29;;;;;;;8.32;5.93;;;21.70;80.70;;;;;;5031513;28;20033;-59
2021/08/21 02:58:55;;;;;;;9.02;6.75;;;21.70;80.70;;;;;;5064724;28;20063;-59
2021/08/21 03:01:20;;;;;;;10.02;6.22;;;21.70;80.70;;;;;;5030025;28;20039;-59
2021/08/21 03:03:46;;;;;;;9.82;6.43;;;21.60;80.70;;;;;;5059243;28;20028;-59
2021/08/21 03:06:11;;;;;;;7.50;6.35;;;21.60;80.80;;;;;;5060972;28;20021;-60
2021/08/21 03:08:37;;;;;;;11.13;6.13;;;21.60;80.80;;;;;;5043681;28;20413;-59
2021/08/21 03:11:02;;;;;;;11.55;6.35;;;21.60;80.90;;;;;;5065829;28;20572;-59
2021/08/21 03:13:28;;;;;;;6.82;6.03;;;21.60;80.90;;;;;;5047267;28;20039;-59
2021/08/21 03:15:53;;;;;;;7.35;6.03;;;21.50;80.90;;;;;;5064496;28;20082;-59
2021/08/21 03:18:19;;;;;;;8.27;5.80;;;21.60;81.00;;;;;;5033342;28;20071;-59
2021/08/21 03:20:44;;;;;;;8.13;5.50;;;21.50;81.00;;;;;;5067330;28;20072;-60
2021/08/21 03:23:10;;;;;;;9.02;5.90;;;21.50;81.20;;;;;;5046574;28;20127;-59
2021/08/21 03:25:36;;;;;;;8.73;5.30;;;21.50;81.20;;;;;;5032493;28;20048;-59
2021/08/21 03:28:02;;;;;;;10.40;5.97;;;21.50;81.40;;;;;;5030354;28;20038;-59
2021/08/21 03:30:28;;;;;;;7.55;5.55;;;21.50;81.50;;;;;;5051116;28;20042;-60
2021/08/21 03:32:54;;;;;;;8.07;5.55;;;21.40;81.50;;;;;;5044457;28;20021;-59
2021/08/21 03:35:19;;;;;;;10.30;5.45;;;21.40;81.60;;;;;;5032732;28;20083;-60
2021/08/21 03:37:45;;;;;;;6.97;5.80;;;21.40;81.50;;;;;;5045702;28;20119;-59
2021/08/21 03:40:11;;;;;;;9.68;5.75;;;21.40;81.70;;;;;;5046868;28;20400;-59
2021/08/21 03:42:37;;;;;;;8.65;5.82;;;21.40;81.70;;;;;;5062783;28;20021;-59
2021/08/21 03:45:03;;;;;;;7.60;5.72;;;21.40;81.80;;;;;;5041989;28;20116;-59
2021/08/21 03:47:28;;;;;;;6.32;5.13;;;21.40;81.80;;;;;;5036731;28;20045;-59
2021/08/21 03:49:54;;;;;;;7.80;5.75;;;21.30;81.80;;;;;;5028850;28;20052;-59
2021/08/21 03:52:19;;;;;;;9.10;5.45;;;21.40;81.90;;;;;;5030903;28;20107;-59
2021/08/21 03:54:45;;;;;;;7.40;5.63;;;21.30;81.70;;;;;;5046901;28;20081;-59
2021/08/21 03:57:12;;;;;;;6.13;5.45;;;21.30;81.90;;;;;;5029627;28;20555;-60
2021/08/21 03:59:38;;;;;;;7.05;5.20;;;21.30;81.90;;;;;;5032668;28;20024;-59
2021/08/21 04:02:04;;;;;;;7.60;5.10;;;21.30;82.00;;;;;;5032021;28;20029;-59
2021/08/21 04:04:29;;;;;;;9.65;5.53;;;21.20;81.80;;;;;;5074985;28;20055;-59
2021/08/21 04:06:55;;;;;;;7.68;5.70;;;21.30;82.10;;;;;;5046313;28;20032;-59
2021/08/21 04:09:20;;;;;;;7.60;5.60;;;21.20;82.00;;;;;;5062848;28;20124;-59
2021/08/21 04:11:46;;;;;;;8.02;5.90;;;21.20;82.10;;;;;;5069590;28;20036;-59
2021/08/21 04:14:11;;;;;;;8.75;6.22;;;21.20;82.20;;;;;;5046473;28;20037;-60
2021/08/21 04:16:37;;;;;;;7.40;5.63;;;21.20;82.20;;;;;;5066782;28;20060;-59
2021/08/21 04:19:02;;;;;;;7.47;5.43;;;21.20;82.20;;;;;;5047059;28;20033;-59
2021/08/21 04:21:28;;;;;;;8.80;6.00;;;21.10;82.20;;;;;;5046245;28;20472;-59
2021/08/21 04:23:53;;;;;;;6.93;6.00;;;21.10;82.30;;;;;;5070094;28;20472;-59
2021/08/21 04:26:20;;;;;;;9.00;5.78;;;21.10;82.30;;;;;;5049753;28;20043;-58
2021/08/21 04:28:45;;;;;;;13.25;6.15;;;21.10;82.40;;;;;;5046838;28;20116;-59
2021/08/21 04:31:11;;;;;;;16.52;5.93;;;21.00;82.60;;;;;;5028892;28;20111;-59
2021/08/21 04:33:36;;;;;;;15.30;6.13;;;21.00;82.80;;;;;;5060876;28;20118;-58
2021/08/21 04:36:02;;;;;;;19.20;6.60;;;21.00;82.70;;;;;;5032424;28;20047;-59
2021/08/21 04:38:27;;;;;;;12.35;5.88;;;21.00;82.70;;;;;;5064364;28;20078;-59
2021/08/21 04:40:53;;;;;;;14.90;6.10;;;21.00;82.70;;;;;;5044819;28;20104;-59
2021/08/21 04:43:19;;;;;;;11.20;5.78;;;20.90;82.70;;;;;;5060567;28;20443;-59
2021/08/21 04:45:45;;;;;;;13.48;6.20;;;20.90;82.80;;;;;;5044601;28;20035;-59
2021/08/21 04:48:10;;;;;;;7.30;5.82;;;20.90;82.90;;;;;;5028044;28;20513;-59
2021/08/21 04:50:36;;;;;;;24.48;5.95;;;20.90;83.00;;;;;;5042952;28;20040;-59
2021/08/21 04:53:05;;;;;;;13.52;6.25;;;20.90;82.90;;;;;;5027781;28;20041;-59
2021/08/21 04:55:31;;;;;;;10.60;5.50;;;20.90;83.00;;;;;;5030241;28;20067;-59
2021/08/21 04:57:57;;;;;;;11.82;5.70;;;20.80;83.10;;;;;;5027944;28;20123;-59
2021/08/21 05:00:23;;;;;;;11.68;5.30;;;20.80;83.10;;;;;;5053726;28;20082;-59
2021/08/21 05:02:51;;;;;;;11.35;5.85;;;20.80;83.10;;;;;;5031294;28;20270;-59
2021/08/21 05:05:17;;;;;;;9.25;5.82;;;20.80;83.20;;;;;;5044000;28;20239;-59
2021/08/21 05:07:45;;;;;;;10.98;5.55;;;20.80;83.10;;;;;;5031509;28;20314;-59
2021/08/21 05:10:12;;;;;;;17.85;6.05;;;20.80;83.00;;;;;;5068861;28;20032;-59
2021/08/21 05:12:38;;;;;;;11.73;5.55;;;20.80;83.00;;;;;;5049527;28;20021;-59
2021/08/21 05:15:04;;;;;;;10.77;5.90;;;20.70;83.00;;;;;;5048624;28;20065;-59
2021/08/21 05:17:30;;;;;;;10.00;5.85;;;20.80;83.10;;;;;;5031440;28;20095;-59
2021/08/21 05:19:58;;;;;;;64.70;10.98;;;20.70;83.10;;;;;;5048074;28;20189;-59
2021/08/21 05:22:29;;;;;;;91.22;12.65;;;20.70;83.10;;;;;;5047519;28;20031;-59
2021/08/21 05:24:54;;;;;;;60.63;9.57;;;20.70;83.10;;;;;;5030493;28;20346;-59
2021/08/21 05:27:21;;;;;;;46.72;8.73;;;20.70;83.00;;;;;;5041101;28;20021;-59
2021/08/21 05:29:46;;;;;;;54.03;8.68;;;20.70;83.00;;;;;;5013073;28;20025;-60
2021/08/21 05:32:12;;;;;;;41.67;7.65;;;20.70;83.00;;;;;;5043550;28;20086;-59
2021/08/21 05:34:37;;;;;;;38.90;7.18;;;20.70;83.00;;;;;;5066811;28;20535;-59
2021/08/21 05:37:03;;;;;;;46.13;8.73;;;20.70;83.10;;;;;;5041438;28;20071;-59
2021/08/21 05:39:28;;;;;;;38.90;7.85;;;20.70;83.10;;;;;;5012043;28;20079;-59
2021/08/21 05:41:54;;;;;;;31.65;7.10;;;20.70;83.10;;;;;;5028495;28;20119;-59
2021/08/21 05:44:19;;;;;;;37.85;8.23;;;20.70;83.00;;;;;;5034586;28;20071;-59
2021/08/21 05:46:45;;;;;;;36.15;7.05;;;20.70;83.00;;;;;;5042336;28;20036;-59
2021/08/21 05:49:10;;;;;;;30.52;7.10;;;20.70;83.00;;;;;;5024593;28;20094;-59
2021/08/21 05:51:36;;;;;;;36.55;6.90;;;20.70;83.00;;;;;;5040348;28;20566;-59
2021/08/21 05:54:01;;;;;;;20.17;6.10;;;20.60;83.00;;;;;;5028789;28;20093;-59
2021/08/21 05:56:27;;;;;;;51.35;9.52;;;20.70;83.10;;;;;;5058440;28;20304;-59
2021/08/21 05:58:53;;;;;;;38.28;7.50;;;20.70;83.10;;;;;;5051824;28;20102;-59
2021/08/21 06:01:18;;;;;;;97.75;9.80;;;20.70;83.10;;;;;;5025557;28;20479;-59
2021/08/21 06:03:44;;;;;;;175.25;14.85;;;20.70;83.10;;;;;;5042443;28;20373;-59
2021/08/21 06:06:11;;;;;;;209.63;17.52;;;20.60;83.20;;;;;;5041851;28;20067;-59
2021/08/21 06:08:37;;;;;;;99.72;12.00;;;20.60;83.40;;;;;;5026823;28;20036;-59
2021/08/21 06:11:02;;;;;;;95.75;10.27;;;20.60;83.50;;;;;;5064867;28;20071;-59
2021/08/21 06:13:28;;;;;;;73.80;10.48;;;20.60;83.60;;;;;;5047515;28;21067;-59
2021/08/21 06:15:53;;;;;;;75.05;9.88;;;20.60;83.60;;;;;;5044653;28;20103;-59
2021/08/21 06:18:19;;;;;;;67.13;9.40;;;20.60;83.60;;;;;;5058919;28;20819;-59
2021/08/21 06:20:44;;;;;;;74.97;9.07;;;20.60;83.80;;;;;;5063211;28;20036;-59
2021/08/21 06:23:10;;;;;;;178.38;15.50;;;20.60;83.90;;;;;;5043296;28;20480;-59
2021/08/21 06:25:35;;;;;;;103.63;12.73;;;20.60;84.30;;;;;;5044309;28;20045;-59
2021/08/21 06:28:01;;;;;;;81.30;9.68;;;20.60;84.40;;;;;;5050171;28;20136;-59
2021/08/21 06:30:26;;;;;;;153.15;14.13;;;20.60;84.30;;;;;;5027921;28;20128;-59
2021/08/21 06:32:52;;;;;;;77.68;10.85;;;20.60;84.30;;;;;;5042068;28;20495;-57
2021/08/21 06:35:17;;;;;;;88.32;11.05;;;20.60;84.20;;;;;;5059467;28;20046;-58
2021/08/21 06:37:43;;;;;;;84.57;10.43;;;20.60;84.10;;;;;;5026802;28;21294;-59
2021/08/21 06:40:09;;;;;;;64.72;10.43;;;20.60;84.10;;;;;;5029105;28;20104;-59
2021/08/21 06:42:34;;;;;;;63.38;10.52;;;20.60;84.20;;;;;;5027732;28;20139;-59
2021/08/21 06:45:00;;;;;;;62.33;10.07;;;20.60;84.30;;;;;;5044311;28;20107;-59
2021/08/21 06:47:25;;;;;;;57.58;9.68;;;20.60;84.30;;;;;;5062318;28;20037;-59
2021/08/21 06:49:51;;;;;;;49.20;8.45;;;20.60;84.60;;;;;;5042179;28;20032;-59
2021/08/21 06:52:16;;;;;;;70.10;9.38;;;20.60;84.60;;;;;;5046745;28;20043;-59
2021/08/21 06:54:42;;;;;;;61.63;8.95;;;20.60;84.50;;;;;;5048066;28;20523;-59
2021/08/21 06:57:07;;;;;;;59.85;8.65;;;20.70;84.60;;;;;;5061497;28;20644;-59
2021/08/21 06:59:33;;;;;;;56.03;9.27;;;20.60;84.60;;;;;;5057706;28;20043;-59
2021/08/21 07:02:01;;;;;;;50.78;8.65;;;20.60;84.60;;;;;;5028238;28;20032;-59
2021/08/21 07:04:27;;;;;;;46.72;7.93;;;20.60;84.60;;;;;;5064010;28;20059;-59
2021/08/21 07:06:52;;;;;;;41.75;7.93;;;20.60;84.60;;;;;;5048821;28;20475;-59
2021/08/21 07:09:18;;;;;;;43.53;8.75;;;20.60;84.50;;;;;;5025416;28;20119;-59
2021/08/21 07:11:43;;;;;;;34.60;6.90;;;20.60;84.60;;;;;;5059225;28;20456;-59
2021/08/21 07:14:09;;;;;;;33.17;7.72;;;20.60;84.70;;;;;;5058932;28;20024;-59
2021/08/21 07:16:34;;;;;;;34.25;8.10;;;20.60;84.70;;;;;;5059195;28;20719;-59
2021/08/21 07:19:00;;;;;;;35.20;7.60;;;20.60;84.80;;;;;;5067319;28;20436;-59
2021/08/21 07:21:26;;;;;;;40.33;8.02;;;20.60;84.80;;;;;;5057880;28;20024;-59
2021/08/21 07:23:51;;;;;;;26.48;7.30;;;20.60;84.90;;;;;;5025943;28;20100;-59
2021/08/21 07:26:17;;;;;;;28.85;7.55;;;20.60;84.90;;;;;;5043768;28;20021;-59
2021/08/21 07:28:42;;;;;;;29.42;7.50;;;20.60;84.90;;;;;;5040723;28;20216;-60
2021/08/21 07:31:08;;;;;;;30.30;6.75;;;20.60;85.00;;;;;;5040914;28;20029;-59
2021/08/21 07:33:34;;;;;;;27.13;7.68;;;20.60;85.10;;;;;;5041133;28;20346;-59
2021/08/21 07:35:59;;;;;;;31.98;6.75;;;20.60;85.10;;;;;;5030162;28;20044;-59
2021/08/21 07:38:25;;;;;;;26.30;6.75;;;20.60;85.10;;;;;;5044352;28;20029;-59
2021/08/21 07:40:51;;;;;;;18.20;6.72;;;20.60;85.20;;;;;;5041925;28;20055;-59
2021/08/21 07:43:16;;;;;;;23.15;6.30;;;20.60;85.20;;;;;;5047841;28;20451;-59
2021/08/21 07:45:43;;;;;;;19.42;6.18;;;20.60;85.20;;;;;;5054055;28;20029;-59
2021/08/21 07:48:08;;;;;;;18.42;7.28;;;20.60;85.30;;;;;;5060901;28;20117;-59
2021/08/21 07:50:34;;;;;;;22.63;6.90;;;20.60;85.70;;;;;;5048082;28;20194;-59
2021/08/21 07:52:59;;;;;;;18.00;7.22;;;20.60;86.10;;;;;;5064416;28;20049;-59
2021/08/21 07:55:25;;;;;;;16.23;6.88;;;20.70;86.60;;;;;;5031855;28;20412;-59
2021/08/21 07:57:50;;;;;;;18.10;6.97;;;20.70;87.00;;;;;;5034107;28;20427;-59
2021/08/21 08:00:16;;;;;;;14.27;6.50;;;20.70;86.60;;;;;;5062147;28;20021;-59
2021/08/21 08:02:43;;;;;;;11.50;7.50;;;20.70;86.50;;;;;;5045131;28;20041;-59
2021/08/21 08:05:09;;;;;;;17.77;7.22;;;20.70;86.50;;;;;;5026969;28;20020;-59
2021/08/21 08:07:35;;;;;;;13.38;7.20;;;20.70;87.60;;;;;;5045872;28;20034;-59
2021/08/21 08:10:00;;;;;;;12.18;7.30;;;20.70;87.80;;;;;;5030741;28;20064;-59
2021/08/21 08:12:26;;;;;;;9.95;6.90;;;20.70;87.90;;;;;;5030038;28;20542;-62
2021/08/21 08:14:52;;;;;;;21.10;7.05;;;20.70;87.90;;;;;;5031956;28;20024;-59
2021/08/21 08:17:17;;;;;;;12.68;7.25;;;20.70;88.10;;;;;;5016192;28;20075;-59
2021/08/21 08:19:43;;;;;;;11.20;6.95;;;20.70;88.40;;;;;;5039231;28;20032;-59
2021/08/21 08:22:08;;;;;;;12.77;7.80;;;20.70;88.80;;;;;;5047406;28;20063;-59
2021/08/21 08:24:34;;;;;;;14.43;7.07;;;20.70;89.00;;;;;;5065959;28;20056;-59
2021/08/21 08:26:59;;;;;;;12.88;7.45;;;20.80;89.20;;;;;;5062351;28;20039;-59
2021/08/21 08:29:25;;;;;;;14.63;7.20;;;20.80;89.10;;;;;;5048709;28;20027;-59
2021/08/21 08:31:50;;;;;;;9.68;6.85;;;20.80;89.20;;;;;;5010951;28;20123;-59
2021/08/21 08:34:16;;;;;;;12.77;7.30;;;20.80;89.50;;;;;;5042704;28;20496;-59
2021/08/21 08:36:41;;;;;;;18.30;7.78;;;20.80;89.20;;;;;;5044548;28;20032;-59
2021/08/21 08:39:07;;;;;;;16.60;8.02;;;20.90;89.50;;;;;;5066112;28;20038;-59
2021/08/21 08:41:32;;;;;;;13.55;7.75;;;20.90;89.60;;;;;;5025839;28;20039;-59
2021/08/21 08:43:58;;;;;;;17.77;7.63;;;21.00;89.40;;;;;;5045907;28;20291;-59
2021/08/21 08:46:23;;;;;;;18.42;8.50;;;21.00;89.10;;;;;;5036368;28;20155;-59
2021/08/21 08:48:49;;;;;;;29.42;8.32;;;21.00;89.10;;;;;;5062231;28;20157;-59
2021/08/21 08:51:15;;;;;;;10.82;7.32;;;21.00;89.20;;;;;;5039797;28;20118;-59
2021/08/21 08:53:40;;;;;;;40.63;9.82;;;21.10;89.20;;;;;;5031458;28;20048;-59
2021/08/21 08:56:06;;;;;;;52.85;12.15;;;21.10;89.50;;;;;;5043579;28;20036;-59
2021/08/21 08:58:31;;;;;;;49.83;8.70;;;21.10;89.70;;;;;;5066874;28;20058;-60
2021/08/21 09:00:57;;;;;;;35.80;9.07;;;21.20;89.10;;;;;;5026846;28;20048;-59
2021/08/21 09:03:24;;;;;;;68.40;12.52;;;21.20;89.50;;;;;;5019433;28;20025;-59
2021/08/21 09:05:50;;;;;;;32.65;8.93;;;21.20;89.60;;;;;;5041404;28;20808;-59
2021/08/21 09:08:35;;;;;;;40.90;10.15;;;21.30;89.50;;;;;;5060517;28;20116;-59
2021/08/21 09:11:02;;;;;;;44.78;9.85;;;21.30;89.80;;;;;;5036493;28;20036;-59
2021/08/21 09:13:29;;;;;;;45.10;9.45;;;21.30;89.20;;;;;;5042157;28;20037;-60
2021/08/21 09:15:58;;;;;;;31.55;9.35;;;21.40;89.20;;;;;;5045066;28;20043;-59
2021/08/21 09:18:27;;;;;;;44.75;9.80;;;21.40;89.20;;;;;;5024149;28;20045;-59
2021/08/21 09:21:00;;;;;;;44.28;9.48;;;21.40;89.00;;;;;;5042491;28;20530;-59
2021/08/21 09:23:36;;;;;;;30.70;10.20;;;21.50;89.20;;;;;;5057388;28;20040;-59
2021/08/21 09:26:13;;;;;;;44.88;10.43;;;21.50;89.40;;;;;;5044090;28;20083;-59
2021/08/21 09:28:43;;;;;;;39.92;9.77;;;21.60;89.60;;;;;;5041123;28;20017;-59
2021/08/21 09:31:14;;;;;;;50.15;10.40;;;21.60;88.90;;;;;;5048492;28;20024;-59
2021/08/21 09:33:53;;;;;;;58.17;11.20;;;21.70;88.90;;;;;;5029312;28;20521;-60
2021/08/21 09:36:30;;;;;;;47.67;11.73;;;21.70;89.20;;;;;;5030481;28;20033;-59
2021/08/21 09:38:55;;;;;;;72.97;12.55;;;21.80;89.30;;;;;;5027737;28;20106;-59
2021/08/21 09:41:21;;;;;;;57.92;10.60;;;21.70;89.00;;;;;;5024891;28;20072;-59
2021/08/21 09:43:46;;;;;;;53.50;12.35;;;21.90;89.10;;;;;;5041642;28;20099;-60
2021/08/21 09:46:21;;;;;;;59.33;12.23;;;21.90;88.90;;;;;;5044140;28;20043;-59
2021/08/21 09:49:06;;;;;;;57.90;12.07;;;21.90;88.70;;;;;;5044037;28;20029;-60
2021/08/21 09:51:51;;;;;;;95.82;14.27;;;22.00;88.60;;;;;;5063901;28;20343;-59
2021/08/21 09:54:18;;;;;;;78.45;12.50;;;22.00;88.40;;;;;;5055940;28;20594;-59
2021/08/21 09:56:51;;;;;;;52.60;11.20;;;22.10;88.30;;;;;;5038086;28;20515;-59
2021/08/21 09:59:16;;;;;;;68.00;13.30;;;22.20;88.00;;;;;;5021839;28;20171;-60
2021/08/21 10:01:42;;;;;;;73.35;13.63;;;22.20;88.00;;;;;;5040054;28;20032;-59
2021/08/21 10:04:08;;;;;;;43.95;11.18;;;22.20;88.00;;;;;;5020621;28;20349;-59
2021/08/21 10:06:34;;;;;;;78.22;12.98;;;22.30;87.90;;;;;;5006374;28;20033;-59
2021/08/21 10:09:04;;;;;;;54.58;11.80;;;22.40;88.00;;;;;;5004321;28;20040;-62
2021/08/21 10:11:29;;;;;;;64.68;11.88;;;22.30;87.60;;;;;;5021043;28;20029;-60
2021/08/21 10:13:56;;;;;;;69.82;12.68;;;22.40;87.70;;;;;;5042188;28;20037;-59
2021/08/21 10:16:21;;;;;;;55.75;11.80;;;22.40;87.70;;;;;;5024484;28;20032;-58
2021/08/21 10:18:47;;;;;;;64.28;12.98;;;22.50;87.50;;;;;;5030834;28;20152;-59
2021/08/21 10:21:13;;;;;;;68.95;13.82;;;22.50;87.40;;;;;;5021608;28;20032;-58
2021/08/21 10:23:41;;;;;;;66.40;12.25;;;22.50;87.30;;;;;;5040414;28;20028;-59
2021/08/21 10:26:34;;;;;;;76.78;13.38;;;22.60;87.10;;;;;;5023501;28;20059;-60
2021/08/21 10:29:00;;;;;;;81.13;14.13;;;22.50;86.90;;;;;;5026854;28;20025;-59
2021/08/21 10:31:46;;;;;;;67.53;11.85;;;22.70;86.90;;;;;;5038002;28;20036;-59
2021/08/21 10:34:13;;;;;;;56.97;12.02;;;22.80;86.60;;;;;;5020737;28;20036;-60
2021/08/21 10:36:47;;;;;;;60.50;11.55;;;22.80;86.20;;;;;;5007874;28;20040;-60
2021/08/21 10:39:22;;;;;;;63.80;12.95;;;22.90;86.10;;;;;;5025014;28;20028;-59
2021/08/21 10:41:50;;;;;;;59.42;11.55;;;22.90;86.00;;;;;;5037304;28;20472;-59
2021/08/21 10:44:38;;;;;;;45.22;10.48;;;22.90;85.60;;;;;;5033034;28;20041;-60
2021/08/21 10:47:06;;;;;;;49.80;11.75;;;23.00;85.40;;;;;;5021603;28;20392;-59
2021/08/21 10:49:45;;;;;;;75.70;13.00;;;23.10;85.10;;;;;;5057162;28;20037;-60
2021/08/21 10:52:49;;;;;;;70.53;11.57;;;23.10;84.80;;;;;;5036171;28;20598;-59
2021/08/21 10:55:25;;;;;;;66.07;10.90;;;23.20;84.70;;;;;;5055470;28;20571;-59
2021/08/21 10:58:05;;;;;;;73.72;11.95;;;23.20;84.60;;;;;;5039175;28;20463;-59
2021/08/21 11:00:40;;;;;;;72.32;12.23;;;23.20;84.30;;;;;;5037236;28;20024;-60
2021/08/21 11:03:06;;;;;;;63.57;12.60;;;23.30;84.20;;;;;;5040880;28;20024;-60
2021/08/21 11:05:57;;;;;;;60.10;11.55;;;23.30;83.50;;;;;;5058820;28;20565;-59
2021/08/21 11:08:24;;;;;;;72.93;11.63;;;23.40;82.90;;;;;;5039934;28;20105;-59
2021/08/21 11:14:01;;;;;;;48.65;9.60;;;23.50;81.90;;;;;;5049010;28;20479;-59
2021/08/21 11:16:46;;;;;;;40.03;10.02;;;23.60;81.60;;;;;;5028684;28;20048;-59
2021/08/21 11:19:13;;;;;;;67.88;11.50;;;23.70;80.80;;;;;;5042473;28;20115;-59
2021/08/21 11:21:38;;;;;;;54.67;10.15;;;23.70;80.60;;;;;;5044424;28;20033;-59
2021/08/21 11:24:23;;;;;;;53.95;10.95;;;23.80;80.40;;;;;;5037148;28;20677;-59
2021/08/21 11:26:49;;;;;;;36.00;8.60;;;23.90;80.10;;;;;;5033645;28;20127;-60
2021/08/21 11:29:15;;;;;;;52.45;9.52;;;23.90;79.40;;;;;;5027721;28;20820;-60
2021/08/21 11:31:55;;;;;;;39.03;8.10;;;24.00;79.20;;;;;;5063799;28;20464;-60
2021/08/21 11:34:21;;;;;;;54.13;11.57;;;24.10;78.30;;;;;;5025465;28;20075;-60
2021/08/21 11:36:47;;;;;;;33.38;8.20;;;24.20;78.20;;;;;;5037325;28;20141;-60
2021/08/21 11:39:12;;;;;;;32.22;7.80;;;24.20;77.60;;;;;;5025341;28;20071;-59
2021/08/21 11:41:38;;;;;;;34.42;7.03;;;24.20;76.60;;;;;;5046969;28;20111;-59
2021/08/21 11:44:07;;;;;;;40.40;8.35;;;24.40;76.50;;;;;;5027794;28;20068;-60
2021/08/21 11:46:32;;;;;;;34.03;6.90;;;24.50;76.70;;;;;;5048626;28;20035;-59
2021/08/21 11:49:07;;;;;;;23.50;7.10;;;24.50;75.70;;;;;;5039226;28;20029;-59
2021/08/21 11:51:37;;;;;;;33.72;6.82;;;24.60;75.20;;;;;;5026271;28;20411;-59
2021/08/21 11:54:06;;;;;;;26.20;7.07;;;24.60;75.00;;;;;;5012510;28;20037;-60
2021/08/21 11:56:32;;;;;;;26.23;7.13;;;24.80;74.70;;;;;;5024601;28;20091;-60
2021/08/21 11:59:08;;;;;;;22.73;7.07;;;24.80;74.20;;;;;;5043795;28;20020;-60
2021/08/21 12:01:36;;;;;;;28.23;7.00;;;24.90;74.00;;;;;;5007100;28;20063;-60
2021/08/21 12:06:35;;;;;;;32.33;6.85;;;25.10;73.30;;;;;;5047800;28;20091;-60
2021/08/21 12:09:10;;;;;;;39.58;7.50;;;25.10;73.10;;;;;;5028295;28;20118;-60
2021/08/21 12:11:39;;;;;;;35.05;6.78;;;25.20;73.00;;;;;;5062449;28;20367;-61
2021/08/21 12:14:04;;;;;;;50.42;9.30;;;25.20;72.90;;;;;;5023843;28;20033;-61
2021/08/21 12:16:31;;;;;;;41.92;7.15;;;25.40;72.70;;;;;;5024557;28;20079;-61
2021/08/21 12:18:57;;;;;;;39.20;7.78;;;25.40;72.30;;;;;;5026576;28;20069;-61
2021/08/21 12:21:23;;;;;;;49.42;7.70;;;25.60;71.80;;;;;;5026271;28;20020;-61
2021/08/21 12:23:49;;;;;;;55.60;9.07;;;25.60;71.90;;;;;;5024183;28;20464;-60
2021/08/21 12:26:17;;;;;;;39.20;7.43;;;25.80;71.70;;;;;;5032140;28;20077;-60
2021/08/21 12:28:44;;;;;;;71.40;9.85;;;25.80;71.60;;;;;;5042643;28;20055;-61
2021/08/21 12:31:14;;;;;;;45.95;8.07;;;25.80;71.40;;;;;;5054817;28;20167;-60
2021/08/21 12:33:44;;;;;;;57.42;8.85;;;25.90;71.10;;;;;;5044384;28;20029;-61
2021/08/21 12:36:18;;;;;;;87.18;11.45;;;26.00;71.30;;;;;;5044804;28;20036;-61
2021/08/21 12:38:59;;;;;;;63.05;10.73;;;26.00;71.40;;;;;;5039539;28;20479;-61
2021/08/21 12:41:25;;;;;;;54.95;9.13;;;26.10;71.50;;;;;;5058660;28;20749;-61